createdAt,value
2023-01-07T00:01:16.159Z,17.92
2023-01-07T00:03:44.014Z,19.35
2023-01-07T00:06:21.823Z,19.67
2023-01-07T00:08:49.849Z,21.33
2023-01-07T00:11:19.360Z,13.23
2023-01-07T00:13:47.094Z,13.38
2023-01-07T00:16:16.151Z,15.15
2023-01-07T00:18:43.918Z,14.60
2023-01-07T00:21:12.267Z,12.52
2023-01-07T00:23:40.122Z,6.18
2023-01-07T00:26:17.918Z,15.27
2023-01-07T00:28:48.704Z,10.38
2023-01-07T00:31:20.150Z,15.18
2023-01-07T00:33:56.736Z,11.48
2023-01-07T00:36:25.025Z,7.90
2023-01-07T00:39:02.911Z,9.38
2023-01-07T00:41:30.108Z,15.95
2023-01-07T00:43:57.319Z,6.93
2023-01-07T00:46:24.641Z,17.13
2023-01-07T00:48:51.874Z,11.02
2023-01-07T00:51:19.562Z,7.20
2023-01-07T00:53:47.219Z,18.55
2023-01-07T00:56:15.032Z,10.98
2023-01-07T00:58:42.537Z,17.10
2023-01-07T01:01:10.617Z,12.43
2023-01-07T01:03:38.408Z,14.18
2023-01-07T01:06:07.268Z,12.93
2023-01-07T01:08:34.547Z,14.43
2023-01-07T01:11:08.516Z,9.25
2023-01-07T01:13:35.845Z,15.48
2023-01-07T01:16:07.621Z,15.88
2023-01-07T01:18:34.981Z,17.53
2023-01-07T01:21:09.805Z,7.55
2023-01-07T01:23:37.202Z,11.98
2023-01-07T01:26:05.440Z,7.90
2023-01-07T01:28:32.939Z,20.42
2023-01-07T01:31:00.183Z,13.70
2023-01-07T01:33:27.496Z,5.97
2023-01-07T01:35:54.762Z,18.20
2023-01-07T01:38:21.993Z,11.00
2023-01-07T01:40:49.268Z,13.10
2023-01-07T01:43:28.811Z,20.52
2023-01-07T01:45:56.255Z,10.30
2023-01-07T01:48:23.801Z,9.27
2023-01-07T01:50:51.954Z,8.18
2023-01-07T01:53:30.495Z,15.13
2023-01-07T01:56:03.300Z,13.20
2023-01-07T01:58:50.758Z,13.10
2023-01-07T02:01:18.100Z,11.32
2023-01-07T02:03:45.611Z,9.15
2023-01-07T02:06:18.256Z,7.15
2023-01-07T02:08:45.444Z,13.02
2023-01-07T02:11:12.638Z,14.52
2023-01-07T02:13:47.583Z,9.18
2023-01-07T02:16:14.933Z,13.50
2023-01-07T02:18:44.961Z,24.13
2023-01-07T02:21:17.733Z,6.03
2023-01-07T02:23:48.015Z,11.68
2023-01-07T02:26:18.094Z,15.52
2023-01-07T02:28:48.381Z,13.85
2023-01-07T02:31:24.997Z,9.48
2023-01-07T02:33:52.290Z,12.85
2023-01-07T02:36:45.106Z,8.90
2023-01-07T02:39:31.398Z,11.93
2023-01-07T02:41:59.992Z,14.80
2023-01-07T02:44:35.888Z,10.63
2023-01-07T02:47:23.376Z,9.73
2023-01-07T02:49:50.778Z,12.77
2023-01-07T02:52:25.187Z,13.43
2023-01-07T02:54:55.513Z,8.10
2023-01-07T02:57:28.870Z,11.52
2023-01-07T03:00:06.269Z,10.25
2023-01-07T03:02:39.427Z,10.57
2023-01-07T03:05:18.952Z,6.55
2023-01-07T03:07:52.443Z,10.63
2023-01-07T03:10:41.527Z,21.30
2023-01-07T03:13:12.772Z,10.75
2023-01-07T03:15:42.348Z,16.42
2023-01-07T03:18:12.531Z,15.68
2023-01-07T03:20:40.887Z,7.45
2023-01-07T03:23:10.068Z,11.50
2023-01-07T03:25:41.235Z,9.30
2023-01-07T03:28:10.333Z,10.35
2023-01-07T03:30:38.337Z,21.95
2023-01-07T03:33:05.528Z,9.73
2023-01-07T03:35:33.525Z,10.45
2023-01-07T03:38:02.656Z,15.60
2023-01-07T03:40:30.288Z,15.50
2023-01-07T03:42:57.536Z,9.45
2023-01-07T03:45:25.544Z,13.50
2023-01-07T03:47:54.189Z,9.00
2023-01-07T03:50:21.571Z,8.82
2023-01-07T03:52:49.517Z,12.25
2023-01-07T03:55:16.751Z,8.52
2023-01-07T03:57:43.973Z,8.10
2023-01-07T04:00:12.663Z,6.82
2023-01-07T04:02:39.940Z,9.45
2023-01-07T04:05:07.370Z,14.77
2023-01-07T04:07:34.596Z,9.23
2023-01-07T04:10:01.883Z,14.73
2023-01-07T04:12:29.157Z,13.63
2023-01-07T04:14:58.475Z,7.28
2023-01-07T04:17:26.476Z,22.58
2023-01-07T04:19:53.740Z,9.27
2023-01-07T04:22:21.057Z,10.57
2023-01-07T04:24:48.363Z,9.20
2023-01-07T04:27:15.592Z,8.88
2023-01-07T04:29:42.833Z,9.77
2023-01-07T04:32:10.093Z,11.27
2023-01-07T04:34:37.358Z,11.50
2023-01-07T04:37:04.579Z,12.68
2023-01-07T04:39:31.764Z,14.27
2023-01-07T04:41:58.958Z,6.43
2023-01-07T04:44:26.286Z,9.70
2023-01-07T04:46:53.634Z,7.30
2023-01-07T04:49:21.112Z,7.30
2023-01-07T04:51:48.390Z,4.30
2023-01-07T04:54:15.717Z,9.82
2023-01-07T04:56:42.999Z,5.05
2023-01-07T04:59:10.184Z,8.10
2023-01-07T05:01:37.580Z,16.55
2023-01-07T05:04:05.084Z,5.85
2023-01-07T05:06:32.391Z,6.55
2023-01-07T05:08:59.693Z,11.40
2023-01-07T05:11:26.950Z,9.98
2023-01-07T05:13:54.313Z,12.30
2023-01-07T05:16:21.594Z,10.27
2023-01-07T05:18:48.856Z,6.40
2023-01-07T05:21:16.159Z,10.85
2023-01-07T05:23:43.479Z,4.70
2023-01-07T05:26:11.021Z,9.05
2023-01-07T05:28:38.341Z,12.68
2023-01-07T05:31:05.711Z,8.90
2023-01-07T05:33:32.999Z,10.75
2023-01-07T05:36:00.343Z,12.70
2023-01-07T05:38:27.610Z,7.50
2023-01-07T05:40:54.934Z,8.75
2023-01-07T05:43:22.282Z,12.13
2023-01-07T05:45:49.786Z,8.25
2023-01-07T05:48:17.041Z,4.63
2023-01-07T05:50:44.531Z,12.13
2023-01-07T05:53:11.733Z,9.25
2023-01-07T05:55:39.007Z,11.60
2023-01-07T05:58:07.017Z,3.47
2023-01-07T06:00:34.709Z,7.03
2023-01-07T06:03:01.983Z,5.95
2023-01-07T06:05:32.250Z,10.05
2023-01-07T06:07:59.534Z,7.53
2023-01-07T06:10:26.766Z,5.18
2023-01-07T06:12:54.039Z,6.57
2023-01-07T06:15:21.297Z,5.28
2023-01-07T06:17:48.496Z,5.82
2023-01-07T06:20:15.719Z,10.40
2023-01-07T06:22:43.505Z,9.35
2023-01-07T06:25:11.302Z,14.20
2023-01-07T06:27:40.681Z,10.30
2023-01-07T06:30:08.847Z,12.18
2023-01-07T06:32:43.047Z,14.63
2023-01-07T06:35:11.304Z,9.75
2023-01-07T06:37:38.804Z,5.43
2023-01-07T06:40:06.365Z,6.05
2023-01-07T06:42:33.705Z,14.45
2023-01-07T06:45:01.017Z,6.93
2023-01-07T06:47:28.298Z,9.65
2023-01-07T06:49:55.517Z,12.85
2023-01-07T06:52:22.770Z,9.00
2023-01-07T06:54:50.022Z,10.90
2023-01-07T06:57:17.320Z,7.38
2023-01-07T06:59:44.586Z,10.55
2023-01-07T07:02:22.243Z,10.43
2023-01-07T07:04:50.008Z,15.15
2023-01-07T07:07:17.574Z,12.18
2023-01-07T07:09:45.221Z,7.95
2023-01-07T07:12:12.501Z,6.55
2023-01-07T07:14:39.723Z,6.72
2023-01-07T07:17:06.961Z,8.23
2023-01-07T07:19:34.211Z,6.47
2023-01-07T07:22:03.831Z,9.43
2023-01-07T07:24:31.823Z,9.60
2023-01-07T07:27:00.194Z,8.05
2023-01-07T07:29:27.482Z,7.32
2023-01-07T07:31:54.756Z,4.75
2023-01-07T07:34:21.963Z,9.30
2023-01-07T07:36:49.207Z,12.50
2023-01-07T07:39:16.653Z,9.63
2023-01-07T07:41:43.894Z,6.80
2023-01-07T07:44:11.174Z,9.43
2023-01-07T07:46:40.079Z,13.70
2023-01-07T07:49:08.471Z,10.73
2023-01-07T07:51:35.748Z,8.93
2023-01-07T07:54:03.057Z,5.10
2023-01-07T07:56:30.451Z,7.90
2023-01-07T07:58:57.644Z,9.38
2023-01-07T08:01:24.929Z,12.00
2023-01-07T08:03:52.342Z,8.98
2023-01-07T08:06:19.759Z,8.60
2023-01-07T08:08:46.973Z,9.68
2023-01-07T08:11:14.312Z,3.35
2023-01-07T08:13:41.623Z,13.38
2023-01-07T08:16:09.120Z,17.05
2023-01-07T08:18:36.429Z,6.45
2023-01-07T08:21:03.920Z,9.30
2023-01-07T08:23:31.524Z,10.27
2023-01-07T08:26:02.936Z,5.70
2023-01-07T08:28:30.877Z,11.85
2023-01-07T08:30:58.133Z,14.38
2023-01-07T08:33:25.474Z,8.95
2023-01-07T08:35:52.742Z,9.23
2023-01-07T08:38:20.075Z,11.32
2023-01-07T08:40:47.269Z,14.45
2023-01-07T08:43:14.548Z,10.30
2023-01-07T08:45:41.784Z,15.68
2023-01-07T08:48:08.987Z,7.20
2023-01-07T08:50:36.245Z,9.35
2023-01-07T08:53:03.584Z,7.80
2023-01-07T08:55:30.879Z,8.45
2023-01-07T08:57:58.195Z,16.08
2023-01-07T09:00:25.505Z,9.60
2023-01-07T09:02:52.927Z,11.35
2023-01-07T09:05:20.187Z,11.45
2023-01-07T09:07:47.435Z,13.82
2023-01-07T09:10:14.645Z,4.70
2023-01-07T09:12:41.873Z,20.65
2023-01-07T09:15:09.566Z,6.20
2023-01-07T09:17:36.881Z,15.02
2023-01-07T09:20:04.659Z,7.10
2023-01-07T09:22:32.412Z,11.15
2023-01-07T09:24:59.901Z,8.85
2023-01-07T09:27:27.205Z,11.23
2023-01-07T09:29:54.821Z,6.50
2023-01-07T09:32:22.267Z,7.57
2023-01-07T09:34:50.495Z,8.38
2023-01-07T09:37:17.759Z,5.60
2023-01-07T09:39:45.033Z,13.00
2023-01-07T09:42:35.566Z,12.43
2023-01-07T09:45:03.848Z,14.05
2023-01-07T09:47:33.767Z,17.65
2023-01-07T09:50:23.301Z,11.57
2023-01-07T09:52:54.702Z,5.57
2023-01-07T09:55:24.755Z,9.40
2023-01-07T09:57:52.177Z,10.23
2023-01-07T10:00:21.647Z,15.73
2023-01-07T10:03:07.710Z,6.40
2023-01-07T10:05:34.957Z,12.82
2023-01-07T10:08:31.283Z,12.82
2023-01-07T10:11:15.580Z,11.43
2023-01-07T10:13:50.042Z,9.75
2023-01-07T10:16:29.409Z,14.73
2023-01-07T10:19:03.326Z,12.10
2023-01-07T10:21:44.983Z,13.95
2023-01-07T10:24:21.997Z,12.57
2023-01-07T10:26:51.759Z,9.77
2023-01-07T10:29:24.958Z,10.07
2023-01-07T10:31:53.472Z,19.85
2023-01-07T10:34:23.183Z,17.25
2023-01-07T10:36:56.136Z,19.27
2023-01-07T10:39:42.398Z,11.10
2023-01-07T10:42:12.711Z,10.98
2023-01-07T10:44:52.094Z,16.63
2023-01-07T10:47:40.923Z,7.00
2023-01-07T10:50:30.892Z,12.85
2023-01-07T10:53:19.130Z,13.68
2023-01-07T10:56:05.188Z,12.68
2023-01-07T10:58:39.174Z,13.05
2023-01-07T11:01:07.641Z,18.05
2023-01-07T11:03:35.091Z,7.38
2023-01-07T11:06:05.415Z,21.23
2023-01-07T11:08:40.108Z,10.82
2023-01-07T11:11:10.999Z,16.08
2023-01-07T11:13:39.740Z,10.77
2023-01-07T11:16:14.642Z,9.48
2023-01-07T11:18:47.781Z,12.95
2023-01-07T11:21:43.336Z,27.55
2023-01-07T11:24:20.742Z,13.07
2023-01-07T11:26:48.117Z,6.72
2023-01-07T11:29:17.768Z,14.27
2023-01-07T11:31:47.567Z,20.85
2023-01-07T11:34:24.307Z,19.92
2023-01-07T11:36:52.105Z,18.27
2023-01-07T11:39:21.317Z,18.85
2023-01-07T11:41:54.563Z,17.63
2023-01-07T11:44:21.972Z,22.42
2023-01-07T11:46:49.521Z,17.67
2023-01-07T11:49:22.682Z,13.68
2023-01-07T11:51:49.987Z,15.57
2023-01-07T11:54:25.541Z,8.15
2023-01-07T11:56:55.126Z,8.82
2023-01-07T11:59:29.927Z,17.77
2023-01-07T12:01:59.336Z,11.85
2023-01-07T12:04:33.910Z,11.07
2023-01-07T12:07:02.799Z,18.85
2023-01-07T12:09:33.042Z,20.35
2023-01-07T12:12:07.339Z,19.35
2023-01-07T12:14:36.835Z,12.27
2023-01-07T12:17:30.480Z,10.07
2023-01-07T12:20:03.768Z,18.20
2023-01-07T12:22:40.139Z,9.68
2023-01-07T12:25:20.022Z,9.63
2023-01-07T12:27:53.066Z,9.13
2023-01-07T12:30:38.544Z,11.55
2023-01-07T12:33:15.429Z,20.77
2023-01-07T12:35:43.952Z,13.80
2023-01-07T12:38:23.521Z,15.07
2023-01-07T12:40:53.727Z,13.20
2023-01-07T12:43:20.991Z,15.43
2023-01-07T12:46:00.440Z,27.10
2023-01-07T12:48:39.519Z,14.10
2023-01-07T12:51:27.390Z,21.25
2023-01-07T12:54:02.539Z,14.73
2023-01-07T12:56:32.312Z,18.23
2023-01-07T12:59:05.547Z,25.35
2023-01-07T13:01:39.450Z,12.70
2023-01-07T13:04:12.752Z,16.13
2023-01-07T13:07:06.616Z,17.42
2023-01-07T13:09:53.129Z,10.40
2023-01-07T13:12:43.888Z,13.95
2023-01-07T13:15:30.004Z,20.30
2023-01-07T13:18:06.835Z,16.83
2023-01-07T13:20:34.054Z,17.48
2023-01-07T13:23:01.972Z,19.45
2023-01-07T13:25:44.675Z,16.65
2023-01-07T13:28:17.910Z,18.00
2023-01-07T13:30:48.347Z,11.35
2023-01-07T13:33:24.401Z,13.70
2023-01-07T13:36:04.086Z,9.18
2023-01-07T13:38:43.682Z,7.22
2023-01-07T13:41:33.817Z,8.90
2023-01-07T13:44:07.293Z,8.75
2023-01-07T13:46:37.311Z,16.48
2023-01-07T13:49:04.723Z,20.15
2023-01-07T13:51:33.944Z,13.57
2023-01-07T13:54:01.247Z,13.00
2023-01-07T13:56:28.528Z,25.50
2023-01-07T13:59:00.438Z,9.32
2023-01-07T14:01:35.002Z,13.02
2023-01-07T14:04:06.671Z,18.92
2023-01-07T14:06:39.327Z,17.48
2023-01-07T14:09:13.527Z,23.52
2023-01-07T14:11:55.839Z,19.52
2023-01-07T14:14:38.437Z,25.25
2023-01-07T14:17:24.546Z,7.50
2023-01-07T14:20:01.175Z,13.52
2023-01-07T14:22:40.836Z,14.68
2023-01-07T14:25:33.442Z,11.18
2023-01-07T14:28:10.775Z,21.45
2023-01-07T14:30:48.517Z,26.40
2023-01-07T14:33:21.975Z,21.05
2023-01-07T14:36:03.763Z,18.48
2023-01-07T14:38:30.976Z,14.32
2023-01-07T14:41:09.090Z,14.45
2023-01-07T14:43:45.630Z,19.98
2023-01-07T14:46:15.758Z,15.25
2023-01-07T14:48:43.895Z,24.00
2023-01-07T14:51:27.426Z,15.70
2023-01-07T14:54:06.967Z,20.85
2023-01-07T14:56:52.045Z,24.85
2023-01-07T14:59:19.272Z,14.93
2023-01-07T15:02:19.225Z,21.55
2023-01-07T15:05:01.757Z,15.90
2023-01-07T15:07:33.140Z,15.52
2023-01-07T15:10:39.828Z,13.73
2023-01-07T15:13:27.089Z,13.20
2023-01-07T15:16:01.421Z,14.65
2023-01-07T15:18:49.058Z,16.90
2023-01-07T15:21:23.149Z,19.80
2023-01-07T15:23:53.259Z,22.75
2023-01-07T15:26:25.199Z,25.60
2023-01-07T15:28:58.214Z,15.25
2023-01-07T15:31:29.699Z,20.05
2023-01-07T15:34:04.275Z,15.10
2023-01-07T15:36:31.951Z,20.75
2023-01-07T15:39:01.914Z,20.17
2023-01-07T15:41:29.221Z,21.50
2023-01-07T15:43:57.085Z,27.00
2023-01-07T15:46:25.737Z,24.08
2023-01-07T15:49:15.384Z,13.68
2023-01-07T15:51:43.830Z,21.27
2023-01-07T15:54:22.700Z,17.95
2023-01-07T15:56:50.094Z,22.95
2023-01-07T15:59:19.421Z,24.35
2023-01-07T16:01:47.996Z,22.83
2023-01-07T16:04:30.155Z,20.30
2023-01-07T16:06:58.833Z,27.95
2023-01-07T16:09:26.678Z,19.10
2023-01-07T16:11:54.230Z,17.30
2023-01-07T16:14:23.098Z,20.75
2023-01-07T16:17:04.044Z,20.02
2023-01-07T16:19:31.271Z,16.73
2023-01-07T16:22:00.098Z,19.05
2023-01-07T16:24:27.517Z,18.15
2023-01-07T16:27:00.677Z,14.00
2023-01-07T16:29:29.289Z,25.77
2023-01-07T16:31:57.100Z,28.88
2023-01-07T16:34:24.307Z,12.05
2023-01-07T16:36:54.391Z,14.93
2023-01-07T16:39:24.871Z,15.27
2023-01-07T16:42:12.289Z,22.95
2023-01-07T16:44:44.203Z,19.55
2023-01-07T16:47:17.867Z,15.48
2023-01-07T16:49:45.653Z,23.30
2023-01-07T16:52:14.565Z,26.92
2023-01-07T16:54:43.535Z,23.10
2023-01-07T16:57:10.760Z,9.48
2023-01-07T16:59:41.709Z,22.75
2023-01-07T17:02:12.581Z,18.10
2023-01-07T17:04:40.035Z,14.07
2023-01-07T17:07:07.607Z,20.77
2023-01-07T17:09:36.227Z,24.77
2023-01-07T17:12:03.763Z,22.08
2023-01-07T17:14:33.890Z,17.48
2023-01-07T17:17:02.005Z,34.75
2023-01-07T17:19:36.203Z,20.55
2023-01-07T17:22:03.935Z,20.95
2023-01-07T17:24:31.196Z,20.38
2023-01-07T17:27:00.431Z,24.10
2023-01-07T17:29:33.963Z,16.90
2023-01-07T17:32:01.617Z,16.20
2023-01-07T17:34:28.841Z,17.85
2023-01-07T17:36:56.073Z,24.42
2023-01-07T17:39:23.322Z,18.83
2023-01-07T17:42:09.099Z,20.83
2023-01-07T17:44:36.395Z,43.30
2023-01-07T17:47:03.722Z,28.45
2023-01-07T17:49:30.920Z,22.02
2023-01-07T17:51:58.203Z,29.80
2023-01-07T17:54:26.148Z,32.35
2023-01-07T17:56:53.499Z,30.67
2023-01-07T17:59:22.081Z,35.65
2023-01-07T18:01:50.956Z,18.92
2023-01-07T18:04:18.531Z,48.60
2023-01-07T18:06:46.169Z,32.50
2023-01-07T18:09:13.652Z,32.33
2023-01-07T18:12:14.914Z,28.88
2023-01-07T18:14:42.207Z,50.90
2023-01-07T18:17:09.501Z,29.85
2023-01-07T18:19:36.737Z,31.55
2023-01-07T18:22:04.067Z,26.63
2023-01-07T18:24:31.362Z,34.22
2023-01-07T18:26:58.553Z,48.35
2023-01-07T18:29:25.823Z,21.70
2023-01-07T18:31:53.162Z,9.32
2023-01-07T18:34:20.441Z,20.50
2023-01-07T18:36:47.663Z,12.77
2023-01-07T18:39:20.603Z,16.10
2023-01-07T18:41:51.514Z,21.25
2023-01-07T18:44:19.223Z,13.80
2023-01-07T18:46:46.718Z,21.10
2023-01-07T18:49:14.316Z,29.42
2023-01-07T18:51:41.550Z,23.52
2023-01-07T18:54:08.832Z,20.52
2023-01-07T18:56:36.077Z,14.38
2023-01-07T18:59:03.328Z,31.55
2023-01-07T19:01:30.784Z,28.02
2023-01-07T19:03:58.128Z,24.65
2023-01-07T19:06:25.414Z,18.60
2023-01-07T19:08:52.667Z,22.85
2023-01-07T19:11:19.876Z,16.85
2023-01-07T19:13:47.107Z,20.08
2023-01-07T19:16:14.820Z,24.58
2023-01-07T19:18:42.107Z,24.02
2023-01-07T19:21:11.341Z,36.80
2023-01-07T19:23:38.616Z,21.55
2023-01-07T19:26:07.535Z,14.63
2023-01-07T19:28:34.950Z,20.27
2023-01-07T19:31:05.309Z,24.48
2023-01-07T19:33:32.971Z,20.13
2023-01-07T19:36:01.470Z,24.02
2023-01-07T19:38:28.671Z,21.33
2023-01-07T19:40:55.916Z,16.55
2023-01-07T19:43:23.193Z,14.25
2023-01-07T19:45:54.226Z,17.77
2023-01-07T19:48:21.569Z,29.73
2023-01-07T19:50:58.858Z,18.55
2023-01-07T19:53:26.458Z,26.75
2023-01-07T19:55:54.554Z,19.38
2023-01-07T19:58:22.102Z,19.92
2023-01-07T20:00:49.417Z,23.77
2023-01-07T20:03:16.710Z,37.60
2023-01-07T20:05:43.948Z,27.98
2023-01-07T20:08:11.243Z,22.50
2023-01-07T20:10:38.485Z,26.55
2023-01-07T20:13:06.447Z,22.85
2023-01-07T20:15:33.807Z,18.27
2023-01-07T20:18:01.058Z,25.40
2023-01-07T20:20:28.329Z,27.00
2023-01-07T20:22:55.629Z,35.65
2023-01-07T20:25:22.834Z,22.90
2023-01-07T20:27:50.041Z,23.33
2023-01-07T20:30:17.296Z,21.45
2023-01-07T20:32:44.489Z,26.45
2023-01-07T20:35:11.851Z,19.17
2023-01-07T20:37:39.118Z,32.95
2023-01-07T20:40:06.688Z,31.85
2023-01-07T20:42:34.036Z,19.95
2023-01-07T20:45:01.283Z,38.08
2023-01-07T20:47:28.531Z,26.38
2023-01-07T20:49:55.872Z,21.05
2023-01-07T20:52:23.090Z,30.83
2023-01-07T20:54:50.391Z,27.73
2023-01-07T20:57:17.604Z,25.65
2023-01-07T20:59:44.796Z,21.08
2023-01-07T21:02:17.105Z,19.50
2023-01-07T21:04:44.527Z,26.30
2023-01-07T21:07:14.129Z,23.70
2023-01-07T21:09:43.386Z,24.52
2023-01-07T21:12:10.734Z,35.42
2023-01-07T21:14:38.003Z,28.60
2023-01-07T21:17:05.270Z,24.40
2023-01-07T21:19:32.492Z,24.55
2023-01-07T21:22:00.475Z,19.27
2023-01-07T21:24:27.766Z,23.17
2023-01-07T21:26:54.980Z,27.67
2023-01-07T21:29:22.213Z,23.70
2023-01-07T21:31:49.538Z,18.17
2023-01-07T21:34:17.004Z,14.98
2023-01-07T21:36:44.360Z,23.10
2023-01-07T21:39:12.590Z,18.48
2023-01-07T21:41:40.281Z,17.40
2023-01-07T21:44:07.541Z,24.05
2023-01-07T21:46:34.791Z,29.48
2023-01-07T21:49:04.295Z,28.85
2023-01-07T21:51:31.542Z,17.55
2023-01-07T21:53:59.181Z,19.02
2023-01-07T21:56:27.651Z,14.00
2023-01-07T21:58:54.915Z,30.95
2023-01-07T22:01:28.122Z,19.70
2023-01-07T22:03:56.513Z,18.92
2023-01-07T22:06:25.112Z,29.08
2023-01-07T22:08:56.632Z,29.40
2023-01-07T22:11:23.941Z,32.97
2023-01-07T22:13:55.179Z,21.77
2023-01-07T22:16:23.356Z,30.25
2023-01-07T22:18:50.928Z,29.63
2023-01-07T22:21:18.644Z,20.88
2023-01-07T22:23:46.615Z,31.15
2023-01-07T22:26:14.727Z,24.15
2023-01-07T22:28:42.350Z,19.60
2023-01-07T22:31:21.681Z,33.90
2023-01-07T22:33:49.053Z,24.08
2023-01-07T22:36:19.139Z,24.05
2023-01-07T22:38:46.338Z,21.48
2023-01-07T22:41:13.505Z,21.70
2023-01-07T22:43:40.762Z,28.23
2023-01-07T22:46:21.068Z,22.60
2023-01-07T22:48:48.708Z,23.92
2023-01-07T22:51:19.937Z,18.48
2023-01-07T22:53:48.053Z,30.23
2023-01-07T22:56:15.327Z,23.60
2023-01-07T22:58:42.616Z,17.23
2023-01-07T23:01:12.726Z,19.75
2023-01-07T23:03:40.556Z,28.48
2023-01-07T23:06:08.433Z,20.50
2023-01-07T23:08:36.146Z,20.45
2023-01-07T23:11:03.671Z,23.42
2023-01-07T23:13:31.153Z,21.45
2023-01-07T23:16:01.252Z,27.63
2023-01-07T23:18:28.504Z,18.27
2023-01-07T23:20:55.749Z,28.60
2023-01-07T23:23:23.007Z,26.33
2023-01-07T23:25:50.797Z,27.88
2023-01-07T23:28:18.838Z,28.42
2023-01-07T23:30:46.043Z,25.35
2023-01-07T23:33:13.246Z,26.38
2023-01-07T23:35:40.473Z,20.02
2023-01-07T23:38:07.789Z,37.55
2023-01-07T23:40:35.084Z,21.02
2023-01-07T23:43:02.277Z,23.02
2023-01-07T23:45:29.683Z,20.10
2023-01-07T23:47:56.931Z,40.08
2023-01-07T23:50:24.268Z,22.80
2023-01-07T23:52:51.568Z,32.88
2023-01-07T23:55:18.843Z,22.63
2023-01-07T23:57:46.059Z,33.05
